createdAt,value
2022-11-15T00:00:01.063Z,5.4
2022-11-15T00:01:01.450Z,5.5
2022-11-15T00:02:02.243Z,5.4
2022-11-15T00:03:01.548Z,5.5
2022-11-15T00:04:08.579Z,5.4
2022-11-15T00:05:01.133Z,5.5
2022-11-15T00:06:03.814Z,5.4
2022-11-15T00:07:01.372Z,5.4
2022-11-15T00:08:04.805Z,5.4
2022-11-15T00:09:01.076Z,5.4
2022-11-15T00:10:01.150Z,5.3
2022-11-15T00:11:03.966Z,5.3
2022-11-15T00:12:01.101Z,5.3
2022-11-15T00:13:01.126Z,5.3
2022-11-15T00:14:01.179Z,5.2
2022-11-15T00:15:01.114Z,5.2
2022-11-15T00:16:01.140Z,5.2
2022-11-15T00:17:01.837Z,5.3
2022-11-15T00:18:01.428Z,5.3
2022-11-15T00:19:01.378Z,5.3
2022-11-15T00:20:02.019Z,5.3
2022-11-15T00:21:02.067Z,5.3
2022-11-15T00:22:01.965Z,5.3
2022-11-15T00:23:01.059Z,5.2
2022-11-15T00:24:01.070Z,5.1
2022-11-15T00:25:01.101Z,5.1
2022-11-15T00:26:01.087Z,5.1
2022-11-15T00:27:01.303Z,5.1
2022-11-15T00:28:01.106Z,5.1
2022-11-15T00:29:01.133Z,5.1
2022-11-15T00:30:01.531Z,5.1
2022-11-15T00:31:01.127Z,5.1
2022-11-15T00:32:01.133Z,5.1
2022-11-15T00:33:01.194Z,5.1
2022-11-15T00:34:01.154Z,5.1
2022-11-15T00:35:01.147Z,5.1
2022-11-15T00:36:01.145Z,5.1
2022-11-15T00:37:01.070Z,5.1
2022-11-15T00:38:01.061Z,5.1
2022-11-15T00:39:01.103Z,5.1
2022-11-15T00:40:01.122Z,5.1
2022-11-15T00:41:06.254Z,5.1
2022-11-15T00:42:01.774Z,5.1
2022-11-15T00:43:01.100Z,5.1
2022-11-15T00:44:01.104Z,5.1
2022-11-15T00:45:01.781Z,5.2
2022-11-15T00:46:01.782Z,5.1
2022-11-15T00:47:01.127Z,5.1
2022-11-15T00:48:01.172Z,5.1
2022-11-15T00:49:01.159Z,5.1
2022-11-15T00:50:01.132Z,5.1
2022-11-15T00:51:01.275Z,5.1
2022-11-15T00:52:01.138Z,5.1
2022-11-15T00:53:01.157Z,5.1
2022-11-15T00:54:00.473Z,5.1
2022-11-15T00:55:00.032Z,5.1
2022-11-15T00:55:59.630Z,5.1
2022-11-15T00:57:01.810Z,5.1
2022-11-15T00:58:01.084Z,5.1
2022-11-15T00:59:01.193Z,5.1
2022-11-15T01:00:01.499Z,5.1
2022-11-15T01:01:01.160Z,5.1
2022-11-15T01:02:01.115Z,5.2
2022-11-15T01:03:01.130Z,5.2
2022-11-15T01:04:01.687Z,5.2
2022-11-15T01:05:01.120Z,5.3
2022-11-15T01:06:00.821Z,5.3
2022-11-15T01:07:00.652Z,5.3
2022-11-15T01:08:00.564Z,5.3
2022-11-15T01:09:00.214Z,5.4
2022-11-15T01:09:59.827Z,5.4
2022-11-15T01:11:02.123Z,5.5
2022-11-15T01:12:01.174Z,5.5
2022-11-15T01:13:01.075Z,5.5
2022-11-15T01:14:01.114Z,5.6
2022-11-15T01:15:01.223Z,5.6
2022-11-15T01:16:05.413Z,5.6
2022-11-15T01:17:01.507Z,5.6
2022-11-15T01:18:01.380Z,5.7
2022-11-15T01:19:02.540Z,5.7
2022-11-15T01:20:02.687Z,5.8
2022-11-15T01:21:08.413Z,5.8
2022-11-15T01:22:02.660Z,5.8
2022-11-15T01:23:01.259Z,5.8
2022-11-15T01:24:01.168Z,5.8
2022-11-15T01:25:01.916Z,5.8
2022-11-15T01:26:11.071Z,5.8
2022-11-15T01:27:02.014Z,5.8
2022-11-15T01:28:01.889Z,5.9
2022-11-15T01:29:00.695Z,5.9
2022-11-15T01:30:00.271Z,6
2022-11-15T01:31:13.008Z,6
2022-11-15T01:32:01.092Z,6
2022-11-15T01:33:01.120Z,6
2022-11-15T01:34:01.115Z,6
2022-11-15T01:35:01.103Z,6
2022-11-15T01:36:16.840Z,6.1
2022-11-15T01:37:02.321Z,6
2022-11-15T01:38:01.160Z,6
2022-11-15T01:39:01.150Z,6.1
2022-11-15T01:40:01.144Z,6.1
2022-11-15T01:41:01.233Z,6.1
2022-11-15T01:42:01.986Z,6.1
2022-11-15T01:43:02.127Z,6.1
2022-11-15T01:44:02.790Z,6.1
2022-11-15T01:45:01.067Z,6.1
2022-11-15T01:46:01.053Z,6.1
2022-11-15T01:47:01.088Z,6.1
2022-11-15T01:48:01.052Z,6.1
2022-11-15T01:49:01.120Z,6.1
2022-11-15T01:50:01.323Z,6.1
2022-11-15T01:51:01.882Z,6.2
2022-11-15T01:52:01.544Z,6.1
2022-11-15T01:53:00.651Z,6.2
2022-11-15T01:54:00.256Z,6.2
2022-11-15T01:54:59.949Z,6.2
2022-11-15T01:55:59.620Z,6.2
2022-11-15T01:57:01.181Z,6.2
2022-11-15T01:58:01.448Z,6.2
2022-11-15T01:59:02.150Z,6.2
2022-11-15T02:00:01.264Z,6.3
2022-11-15T02:01:01.933Z,6.3
2022-11-15T02:02:01.895Z,6.3
2022-11-15T02:03:01.188Z,6.3
2022-11-15T02:04:01.094Z,6.3
2022-11-15T02:05:01.092Z,6.3
2022-11-15T02:06:01.109Z,6.3
2022-11-15T02:07:01.175Z,6.3
2022-11-15T02:08:01.143Z,6.3
2022-11-15T02:09:01.141Z,6.3
2022-11-15T02:10:01.430Z,6.3
2022-11-15T02:11:01.130Z,6.3
2022-11-15T02:12:01.300Z,6.3
2022-11-15T02:13:01.205Z,6.4
2022-11-15T02:14:02.125Z,6.3
2022-11-15T02:15:01.170Z,6.4
2022-11-15T02:16:03.313Z,6.4
2022-11-15T02:17:01.069Z,6.4
2022-11-15T02:18:01.123Z,6.4
2022-11-15T02:19:01.797Z,6.4
2022-11-15T02:20:01.203Z,6.4
2022-11-15T02:21:01.042Z,6.4
2022-11-15T02:22:01.107Z,6.4
2022-11-15T02:23:01.124Z,6.4
2022-11-15T02:24:01.047Z,6.4
2022-11-15T02:25:01.124Z,6.4
2022-11-15T02:26:01.209Z,6.4
2022-11-15T02:27:01.511Z,6.4
2022-11-15T02:28:01.524Z,6.4
2022-11-15T02:29:01.183Z,6.4
2022-11-15T02:30:01.353Z,6.4
2022-11-15T02:31:01.094Z,6.4
2022-11-15T02:32:01.096Z,6.4
2022-11-15T02:33:01.075Z,6.4
2022-11-15T02:34:01.105Z,6.4
2022-11-15T02:35:01.206Z,6.4
2022-11-15T02:36:01.479Z,6.4
2022-11-15T02:37:01.108Z,6.5
2022-11-15T02:38:01.050Z,6.5
2022-11-15T02:39:01.117Z,6.5
2022-11-15T02:40:01.231Z,6.5
2022-11-15T02:41:01.117Z,6.5
2022-11-15T02:42:01.522Z,6.5
2022-11-15T02:43:05.644Z,6.5
2022-11-15T02:44:01.137Z,6.5
2022-11-15T02:45:01.227Z,6.5
2022-11-15T02:46:01.215Z,6.5
2022-11-15T02:47:01.079Z,6.5
2022-11-15T02:48:01.102Z,6.5
2022-11-15T02:49:00.768Z,6.5
2022-11-15T02:50:00.477Z,6.5
2022-11-15T02:51:00.261Z,6.5
2022-11-15T02:52:01.415Z,6.5
2022-11-15T02:53:02.157Z,6.5
2022-11-15T02:54:01.118Z,6.5
2022-11-15T02:55:01.111Z,6.5
2022-11-15T02:56:01.155Z,6.5
2022-11-15T02:57:03.699Z,6.5
2022-11-15T02:58:01.156Z,6.5
2022-11-15T02:59:01.159Z,6.5
2022-11-15T03:00:02.572Z,6.5
2022-11-15T03:01:01.998Z,6.5
2022-11-15T03:02:05.710Z,6.5
2022-11-15T03:03:01.328Z,6.5
2022-11-15T03:04:01.149Z,6.5
2022-11-15T03:05:01.065Z,6.5
2022-11-15T03:06:01.067Z,6.5
2022-11-15T03:07:09.536Z,6.5
2022-11-15T03:08:02.710Z,6.5
2022-11-15T03:09:01.868Z,6.5
2022-11-15T03:10:01.473Z,6.5
2022-11-15T03:11:01.507Z,6.5
2022-11-15T03:12:12.654Z,6.5
2022-11-15T03:13:01.145Z,6.5
2022-11-15T03:14:01.786Z,6.5
2022-11-15T03:15:01.139Z,6.5
2022-11-15T03:16:01.188Z,6.5
2022-11-15T03:17:15.288Z,6.5
2022-11-15T03:18:01.181Z,6.5
2022-11-15T03:19:01.791Z,6.5
2022-11-15T03:20:01.162Z,6.5
2022-11-15T03:21:03.863Z,6.5
2022-11-15T03:22:01.482Z,6.5
2022-11-15T03:23:01.083Z,6.5
2022-11-15T03:24:01.561Z,6.5
2022-11-15T03:25:01.090Z,6.5
2022-11-15T03:26:01.091Z,6.5
2022-11-15T03:27:01.783Z,6.5
2022-11-15T03:28:01.499Z,6.5
2022-11-15T03:29:01.117Z,6.5
2022-11-15T03:30:01.149Z,6.5
2022-11-15T03:31:01.125Z,6.5
2022-11-15T03:32:01.128Z,6.5
2022-11-15T03:33:01.749Z,6.5
2022-11-15T03:34:01.041Z,6.5
2022-11-15T03:35:01.047Z,6.5
2022-11-15T03:36:01.216Z,6.5
2022-11-15T03:37:01.232Z,6.5
2022-11-15T03:38:01.252Z,6.5
2022-11-15T03:39:02.546Z,6.5
2022-11-15T03:40:01.996Z,6.5
2022-11-15T03:41:01.225Z,6.5
2022-11-15T03:42:01.058Z,6.5
2022-11-15T03:43:01.123Z,6.5
2022-11-15T03:44:01.472Z,6.5
2022-11-15T03:45:01.822Z,6.5
2022-11-15T03:46:01.952Z,6.5
2022-11-15T03:47:01.236Z,6.5
2022-11-15T03:48:01.081Z,6.5
2022-11-15T03:49:01.224Z,6.5
2022-11-15T03:50:01.229Z,6.5
2022-11-15T03:51:01.356Z,6.5
2022-11-15T03:52:01.351Z,6.5
2022-11-15T03:53:02.780Z,6.5
2022-11-15T03:54:01.836Z,6.5
2022-11-15T03:55:01.758Z,6.5
2022-11-15T03:56:04.567Z,6.5
2022-11-15T03:57:01.204Z,6.5
2022-11-15T03:58:02.534Z,6.5
2022-11-15T03:59:01.395Z,6.5
2022-11-15T04:00:08.201Z,6.5
2022-11-15T04:01:02.245Z,6.5
2022-11-15T04:02:01.152Z,6.5
2022-11-15T04:03:01.138Z,6.5
2022-11-15T04:04:00.726Z,6.5
2022-11-15T04:05:00.314Z,6.5
2022-11-15T04:05:59.901Z,6.5
2022-11-15T04:06:59.819Z,6.5
2022-11-15T04:08:01.460Z,6.5
2022-11-15T04:09:01.058Z,6.5
2022-11-15T04:10:01.089Z,6.6
2022-11-15T04:11:02.423Z,6.5
2022-11-15T04:12:01.876Z,6.5
2022-11-15T04:13:01.829Z,6.5
2022-11-15T04:14:01.245Z,6.5
2022-11-15T04:15:01.105Z,6.5
2022-11-15T04:16:07.862Z,6.5
2022-11-15T04:17:02.037Z,6.6
2022-11-15T04:18:01.251Z,6.6
2022-11-15T04:19:01.553Z,6.5
2022-11-15T04:20:00.925Z,6.5
2022-11-15T04:21:00.898Z,6.5
2022-11-15T04:22:01.150Z,6.5
2022-11-15T04:23:01.157Z,6.6
2022-11-15T04:24:01.436Z,6.5
2022-11-15T04:25:02.488Z,6.5
2022-11-15T04:26:01.124Z,6.5
2022-11-15T04:27:01.120Z,6.5
2022-11-15T04:28:01.126Z,6.5
2022-11-15T04:29:00.784Z,6.5
2022-11-15T04:30:00.377Z,6.5
2022-11-15T04:31:00.038Z,6.5
2022-11-15T04:32:00.045Z,6.5
2022-11-15T04:33:01.221Z,6.5
2022-11-15T04:34:03.933Z,6.5
2022-11-15T04:35:01.161Z,6.5
2022-11-15T04:36:01.128Z,6.5
2022-11-15T04:37:01.065Z,6.5
2022-11-15T04:38:05.579Z,6.5
2022-11-15T04:39:01.532Z,6.5
2022-11-15T04:40:01.291Z,6.5
2022-11-15T04:41:01.994Z,6.5
2022-11-15T04:42:01.120Z,6.5
2022-11-15T04:43:10.485Z,6.5
2022-11-15T04:44:00.772Z,6.5
2022-11-15T04:45:00.335Z,6.5
2022-11-15T04:45:59.950Z,6.5
2022-11-15T04:46:59.552Z,6.5
2022-11-15T04:48:14.197Z,6.5
2022-11-15T04:49:01.143Z,6.5
2022-11-15T04:50:01.520Z,6.5
2022-11-15T04:51:01.246Z,6.5
2022-11-15T04:52:01.684Z,6.5
2022-11-15T04:53:01.407Z,6.5
2022-11-15T04:54:02.055Z,6.5
2022-11-15T04:55:07.891Z,6.5
2022-11-15T04:56:01.148Z,6.5
2022-11-15T04:57:01.247Z,6.5
2022-11-15T04:58:01.471Z,6.5
2022-11-15T04:59:01.067Z,6.5
2022-11-15T05:00:01.042Z,6.4
2022-11-15T05:01:01.887Z,6.4
2022-11-15T05:02:01.315Z,6.4
2022-11-15T05:03:01.341Z,6.4
2022-11-15T05:04:02.229Z,6.4
2022-11-15T05:05:01.954Z,6.4
2022-11-15T05:06:01.411Z,6.4
2022-11-15T05:07:02.172Z,6.3
2022-11-15T05:08:01.379Z,6.4
2022-11-15T05:09:01.136Z,6.3
2022-11-15T05:10:01.538Z,6.3
2022-11-15T05:11:01.192Z,6.3
2022-11-15T05:12:01.779Z,6.3
2022-11-15T05:13:02.148Z,6.3
2022-11-15T05:14:02.163Z,6.3
2022-11-15T05:15:01.843Z,6.3
2022-11-15T05:16:01.862Z,6.3
2022-11-15T05:17:01.826Z,6.3
2022-11-15T05:18:01.123Z,6.3
2022-11-15T05:19:01.495Z,6.2
2022-11-15T05:20:01.126Z,6.3
2022-11-15T05:21:01.104Z,6.2
2022-11-15T05:22:01.111Z,6.2
2022-11-15T05:23:01.125Z,6.2
2022-11-15T05:24:00.869Z,6.2
2022-11-15T05:25:01.284Z,6.2
2022-11-15T05:26:06.405Z,6.2
2022-11-15T05:27:01.148Z,6.2
2022-11-15T05:28:01.158Z,6.2
2022-11-15T05:29:01.160Z,6.2
2022-11-15T05:30:01.592Z,6.2
2022-11-15T05:31:01.329Z,6.2
2022-11-15T05:32:01.066Z,6.2
2022-11-15T05:33:01.112Z,6.2
2022-11-15T05:34:01.108Z,6.2
2022-11-15T05:35:01.527Z,6.2
2022-11-15T05:36:01.742Z,6.2
2022-11-15T05:37:01.116Z,6.2
2022-11-15T05:38:01.162Z,6.2
2022-11-15T05:39:01.160Z,6.2
2022-11-15T05:40:01.438Z,6.2
2022-11-15T05:41:01.483Z,6.2
2022-11-15T05:42:01.330Z,6.2
2022-11-15T05:43:01.319Z,6.2
2022-11-15T05:44:01.146Z,6.2
2022-11-15T05:45:01.069Z,6.2
2022-11-15T05:46:01.067Z,6.2
2022-11-15T05:47:01.257Z,6.2
2022-11-15T05:48:01.150Z,6.2
2022-11-15T05:49:01.096Z,6.2
2022-11-15T05:50:01.508Z,6.2
2022-11-15T05:51:01.655Z,6.2
2022-11-15T05:52:02.143Z,6.2
2022-11-15T05:53:05.339Z,6.2
2022-11-15T05:54:01.189Z,6.2
2022-11-15T05:55:02.025Z,6.2
2022-11-15T05:56:01.110Z,6.2
2022-11-15T05:57:01.060Z,6.2
2022-11-15T05:58:01.071Z,6.2
2022-11-15T05:59:01.169Z,6.2
2022-11-15T06:00:02.500Z,6.2
2022-11-15T06:01:01.190Z,6.2
2022-11-15T06:02:01.228Z,6.2
2022-11-15T06:03:01.374Z,6.2
2022-11-15T06:04:01.883Z,6.2
2022-11-15T06:05:02.079Z,6.2
2022-11-15T06:06:02.103Z,6.2
2022-11-15T06:07:01.196Z,6.2
2022-11-15T06:08:01.115Z,6.2
2022-11-15T06:09:04.941Z,6.2
2022-11-15T06:10:01.465Z,6.2
2022-11-15T06:11:01.510Z,6.2
2022-11-15T06:12:00.857Z,6.2
2022-11-15T06:13:01.239Z,6.2
2022-11-15T06:14:07.890Z,6.2
2022-11-15T06:15:01.194Z,6.2
2022-11-15T06:16:01.259Z,6.3
2022-11-15T06:17:01.195Z,6.2
2022-11-15T06:18:01.052Z,6.3
2022-11-15T06:19:10.642Z,6.2
2022-11-15T06:20:01.203Z,6.3
2022-11-15T06:21:01.706Z,6.2
2022-11-15T06:22:01.998Z,6.2
2022-11-15T06:23:02.167Z,6.2
2022-11-15T06:24:13.586Z,6.3
2022-11-15T06:25:05.362Z,6.3
2022-11-15T06:26:01.509Z,6.3
2022-11-15T06:27:01.529Z,6.3
2022-11-15T06:28:02.021Z,6.3
2022-11-15T06:29:16.547Z,6.3
2022-11-15T06:30:01.355Z,6.3
2022-11-15T06:31:04.131Z,6.3
2022-11-15T06:32:01.424Z,6.3
2022-11-15T06:33:00.744Z,6.3
2022-11-15T06:34:00.445Z,6.3
2022-11-15T06:35:00.048Z,6.3
2022-11-15T06:35:59.950Z,6.3
2022-11-15T06:36:59.642Z,6.3
2022-11-15T06:38:01.229Z,6.3
2022-11-15T06:39:01.484Z,6.3
2022-11-15T06:40:01.443Z,6.3
2022-11-15T06:41:01.103Z,6.3
2022-11-15T06:42:01.109Z,6.3
2022-11-15T06:43:01.719Z,6.3
2022-11-15T06:44:01.742Z,6.3
2022-11-15T06:45:01.513Z,6.3
2022-11-15T06:46:01.249Z,6.3
2022-11-15T06:47:01.340Z,6.3
2022-11-15T06:48:01.875Z,6.3
2022-11-15T06:49:08.252Z,6.3
2022-11-15T06:50:01.067Z,6.3
2022-11-15T06:51:00.932Z,6.3
2022-11-15T06:52:00.737Z,6.3
2022-11-15T06:53:00.459Z,6.3
2022-11-15T06:54:00.258Z,6.3
2022-11-15T06:55:00.324Z,6.3
2022-11-15T06:55:59.881Z,6.3
2022-11-15T06:57:01.953Z,6.3
2022-11-15T06:58:01.793Z,6.4
2022-11-15T06:59:01.246Z,6.4
2022-11-15T07:00:01.312Z,6.4
2022-11-15T07:01:01.108Z,6.4
2022-11-15T07:02:01.782Z,6.5
2022-11-15T07:03:01.437Z,6.5
2022-11-15T07:04:01.156Z,6.5
2022-11-15T07:05:00.790Z,6.5
2022-11-15T07:06:06.644Z,6.5
2022-11-15T07:07:01.140Z,6.5
2022-11-15T07:08:01.300Z,6.5
2022-11-15T07:09:01.041Z,6.5
2022-11-15T07:10:01.053Z,6.5
2022-11-15T07:11:01.084Z,6.5
2022-11-15T07:12:07.266Z,6.6
2022-11-15T07:13:00.920Z,6.6
2022-11-15T07:14:01.519Z,6.6
2022-11-15T07:15:00.675Z,6.6
2022-11-15T07:16:00.317Z,6.6
2022-11-15T07:16:59.982Z,6.6
2022-11-15T07:17:59.601Z,6.6
2022-11-15T07:19:01.224Z,6.6
2022-11-15T07:20:01.302Z,6.6
2022-11-15T07:21:01.334Z,6.7
2022-11-15T07:22:01.964Z,6.7
2022-11-15T07:23:02.007Z,6.8
2022-11-15T07:24:01.241Z,6.8
2022-11-15T07:25:01.053Z,6.8
2022-11-15T07:26:01.120Z,6.8
2022-11-15T07:27:01.087Z,6.8
2022-11-15T07:28:02.258Z,6.8
2022-11-15T07:29:01.613Z,6.8
2022-11-15T07:30:01.201Z,6.8
2022-11-15T07:31:02.089Z,6.9
2022-11-15T07:32:01.230Z,6.9
2022-11-15T07:33:00.911Z,7
2022-11-15T07:34:01.317Z,7
2022-11-15T07:35:01.156Z,7
2022-11-15T07:36:01.162Z,7
2022-11-15T07:37:01.277Z,7
2022-11-15T07:38:01.069Z,7.1
2022-11-15T07:39:01.330Z,7.1
2022-11-15T07:40:01.339Z,7.1
2022-11-15T07:41:02.873Z,7.1
2022-11-15T07:42:01.515Z,7.1
2022-11-15T07:43:01.371Z,7.1
2022-11-15T07:44:01.405Z,7.2
2022-11-15T07:45:01.288Z,7.2
2022-11-15T07:46:01.111Z,7.2
2022-11-15T07:47:01.527Z,7.3
2022-11-15T07:48:01.124Z,7.3
2022-11-15T07:49:01.400Z,7.3
2022-11-15T07:50:01.734Z,7.3
2022-11-15T07:51:01.822Z,7.3
2022-11-15T07:52:04.159Z,7.3
2022-11-15T07:53:01.553Z,7.3
2022-11-15T07:54:01.330Z,7.4
2022-11-15T07:55:03.759Z,7.5
2022-11-15T07:56:01.244Z,7.5
2022-11-15T07:57:06.616Z,7.5
2022-11-15T07:58:01.763Z,7.5
2022-11-15T07:59:02.051Z,7.5
2022-11-15T08:00:06.162Z,7.6
2022-11-15T08:01:01.544Z,7.6
2022-11-15T08:02:01.311Z,7.6
2022-11-15T08:03:01.174Z,7.6
2022-11-15T08:04:01.132Z,7.7
2022-11-15T08:05:11.247Z,7.7
2022-11-15T08:06:01.531Z,7.7
2022-11-15T08:07:01.175Z,7.8
2022-11-15T08:08:02.864Z,7.8
2022-11-15T08:09:01.484Z,7.8
2022-11-15T08:10:14.233Z,7.8
2022-11-15T08:11:01.350Z,7.8
2022-11-15T08:12:02.002Z,7.9
2022-11-15T08:13:02.189Z,7.9
2022-11-15T08:14:00.891Z,8
2022-11-15T08:15:16.587Z,8
2022-11-15T08:16:01.199Z,8
2022-11-15T08:17:01.095Z,8
2022-11-15T08:18:01.151Z,8
2022-11-15T08:19:01.042Z,8
2022-11-15T08:20:01.117Z,8.1
2022-11-15T08:21:01.263Z,8.1
2022-11-15T08:22:01.262Z,8.1
2022-11-15T08:23:01.941Z,8.1
2022-11-15T08:24:00.933Z,8.1
2022-11-15T08:25:00.636Z,8.1
2022-11-15T08:26:00.330Z,8.2
2022-11-15T08:26:59.961Z,8.2
2022-11-15T08:27:59.621Z,8.3
2022-11-15T08:29:01.193Z,8.3
2022-11-15T08:30:01.401Z,8.3
2022-11-15T08:31:02.107Z,8.3
2022-11-15T08:32:01.529Z,8.3
2022-11-15T08:33:01.265Z,8.3
2022-11-15T08:34:01.898Z,8.4
2022-11-15T08:35:01.079Z,8.4
2022-11-15T08:36:01.057Z,8.4
2022-11-15T08:37:00.700Z,8.5
2022-11-15T08:38:00.420Z,8.5
2022-11-15T08:39:00.226Z,8.5
2022-11-15T08:39:59.912Z,8.5
2022-11-15T08:40:59.619Z,8.5
2022-11-15T08:42:02.994Z,8.6
2022-11-15T08:43:01.350Z,8.6
2022-11-15T08:44:01.068Z,8.6
2022-11-15T08:45:01.072Z,8.6
2022-11-15T08:46:01.078Z,8.7
2022-11-15T08:47:01.463Z,8.7
2022-11-15T08:48:01.217Z,8.8
2022-11-15T08:49:01.101Z,8.8
2022-11-15T08:50:00.491Z,8.8
2022-11-15T08:51:00.088Z,8.8
2022-11-15T08:51:59.713Z,8.8
2022-11-15T08:53:01.430Z,8.9
2022-11-15T08:54:02.039Z,8.9
2022-11-15T08:55:02.051Z,8.9
2022-11-15T08:56:01.536Z,8.9
2022-11-15T08:57:01.144Z,8.9
2022-11-15T08:58:01.152Z,8.9
2022-11-15T08:59:00.736Z,8.9
2022-11-15T09:00:00.339Z,8.9
2022-11-15T09:01:00.034Z,8.9
2022-11-15T09:01:59.686Z,8.9
2022-11-15T09:03:01.330Z,9
2022-11-15T09:04:01.996Z,9
2022-11-15T09:05:01.940Z,9
2022-11-15T09:06:02.084Z,9
2022-11-15T09:07:01.184Z,9
2022-11-15T09:08:06.553Z,9
2022-11-15T09:09:01.040Z,9
2022-11-15T09:10:01.144Z,9
2022-11-15T09:11:01.135Z,9
2022-11-15T09:12:02.976Z,9.1
2022-11-15T09:13:01.525Z,9.1
2022-11-15T09:14:02.154Z,9.1
2022-11-15T09:15:01.135Z,9.2
2022-11-15T09:16:01.062Z,9.2
2022-11-15T09:17:01.066Z,9.2
2022-11-15T09:18:00.475Z,9.3
2022-11-15T09:19:00.152Z,9.3
2022-11-15T09:19:59.872Z,9.4
2022-11-15T09:21:01.837Z,9.4
2022-11-15T09:22:01.278Z,9.4
2022-11-15T09:23:03.944Z,9.5
2022-11-15T09:24:02.341Z,9.5
2022-11-15T09:25:01.141Z,9.5
2022-11-15T09:26:01.138Z,9.5
2022-11-15T09:27:01.315Z,9.5
2022-11-15T09:28:01.146Z,9.5
2022-11-15T09:29:01.148Z,9.5
2022-11-15T09:30:01.151Z,9.5
2022-11-15T09:31:01.888Z,9.6
2022-11-15T09:32:01.070Z,9.5
2022-11-15T09:33:01.080Z,9.6
2022-11-15T09:34:00.752Z,9.7
2022-11-15T09:35:00.390Z,9.7
2022-11-15T09:35:59.964Z,9.7
2022-11-15T09:36:59.869Z,9.7
2022-11-15T09:37:59.473Z,9.8
2022-11-15T09:39:01.118Z,9.8
2022-11-15T09:40:01.322Z,9.8
2022-11-15T09:41:08.507Z,9.8
2022-11-15T09:42:01.124Z,9.8
2022-11-15T09:43:01.128Z,9.9
2022-11-15T09:44:01.135Z,9.9
2022-11-15T09:45:01.150Z,10
2022-11-15T09:46:10.388Z,10
2022-11-15T09:47:01.403Z,10
2022-11-15T09:48:01.080Z,10
2022-11-15T09:49:01.085Z,10
2022-11-15T09:50:01.101Z,10.1
2022-11-15T09:51:13.662Z,10.1
2022-11-15T09:52:01.102Z,10.1
2022-11-15T09:53:01.825Z,10.1
2022-11-15T09:55:01.109Z,10.1
2022-11-15T09:56:16.424Z,10.2
2022-11-15T09:57:01.169Z,10.1
2022-11-15T09:58:01.828Z,10.1
2022-11-15T09:59:01.181Z,10.1
2022-11-15T10:00:23.848Z,10.1
2022-11-15T10:01:02.203Z,10.1
2022-11-15T10:02:01.204Z,10.1
2022-11-15T10:03:02.487Z,10.1
2022-11-15T10:04:01.987Z,10.1
2022-11-15T10:05:02.614Z,10.2
2022-11-15T10:06:01.465Z,10.3
2022-11-15T10:07:01.136Z,10.3
2022-11-15T10:08:01.098Z,10.3
2022-11-15T10:09:01.110Z,10.3
2022-11-15T10:10:01.101Z,10.3
2022-11-15T10:11:30.501Z,10.3
2022-11-15T10:12:01.108Z,10.3
2022-11-15T10:13:01.120Z,10.3
2022-11-15T10:14:00.823Z,10.3
2022-11-15T10:15:01.669Z,10.3
2022-11-15T10:16:01.816Z,10.3
2022-11-15T10:17:01.442Z,10.3
2022-11-15T10:18:02.589Z,10.3
2022-11-15T10:19:01.519Z,10.3
2022-11-15T10:20:05.701Z,10.4
2022-11-15T10:21:01.443Z,10.4
2022-11-15T10:22:01.147Z,10.5
2022-11-15T10:23:01.145Z,10.5
2022-11-15T10:24:01.042Z,10.6
2022-11-15T10:25:01.060Z,10.6
2022-11-15T10:26:06.420Z,10.6
2022-11-15T10:27:01.115Z,10.6
2022-11-15T10:28:01.501Z,10.6
2022-11-15T10:29:01.121Z,10.7
2022-11-15T10:30:01.122Z,10.8
2022-11-15T10:31:01.062Z,10.8
2022-11-15T10:32:00.625Z,10.8
2022-11-15T10:33:00.297Z,10.8
2022-11-15T10:34:00.363Z,10.8
2022-11-15T10:35:02.114Z,10.8
2022-11-15T10:36:01.073Z,10.8
2022-11-15T10:37:01.472Z,10.8
2022-11-15T10:38:02.092Z,10.9
2022-11-15T10:39:01.115Z,10.9
2022-11-15T10:40:01.123Z,10.9
2022-11-15T10:41:01.831Z,10.9
2022-11-15T10:42:06.440Z,11
2022-11-15T10:43:01.394Z,11
2022-11-15T10:44:02.131Z,11
2022-11-15T10:45:02.216Z,11
2022-11-15T10:46:13.678Z,11.1
2022-11-15T10:47:01.143Z,11.1
2022-11-15T10:48:01.135Z,11.1
2022-11-15T10:49:01.148Z,11.1
2022-11-15T10:50:01.187Z,11.1
2022-11-15T10:51:01.383Z,11.1
2022-11-15T10:52:01.208Z,11.1
2022-11-15T10:53:01.069Z,11.1
2022-11-15T10:54:01.460Z,11.2
2022-11-15T10:55:01.098Z,11.2
2022-11-15T10:56:01.091Z,11.2
2022-11-15T10:57:01.089Z,11.3
2022-11-15T10:58:01.090Z,11.3
2022-11-15T10:59:01.115Z,11.3
2022-11-15T11:00:01.177Z,11.4
2022-11-15T11:01:01.155Z,11.4
2022-11-15T11:02:01.785Z,11.4
2022-11-15T11:03:01.224Z,11.4
2022-11-15T11:04:01.131Z,11.5
2022-11-15T11:05:01.173Z,11.5
2022-11-15T11:06:01.153Z,11.5
2022-11-15T11:07:01.179Z,11.5
2022-11-15T11:08:01.150Z,11.5
2022-11-15T11:09:01.080Z,11.5
2022-11-15T11:10:01.081Z,11.6
2022-11-15T11:11:03.585Z,11.6
2022-11-15T11:12:01.907Z,11.6
2022-11-15T11:13:01.105Z,11.6
2022-11-15T11:14:01.996Z,11.6
2022-11-15T11:15:00.792Z,11.6
2022-11-15T11:16:00.477Z,11.6
2022-11-15T11:17:03.001Z,11.6
2022-11-15T11:18:01.840Z,11.6
2022-11-15T11:19:01.167Z,11.7
2022-11-15T11:20:01.197Z,11.7
2022-11-15T11:21:01.186Z,11.8
2022-11-15T11:22:06.166Z,11.8
2022-11-15T11:23:01.600Z,11.8
2022-11-15T11:24:01.496Z,11.8
2022-11-15T11:25:01.202Z,11.8
2022-11-15T11:26:02.175Z,11.8
2022-11-15T11:27:08.343Z,11.8
2022-11-15T11:28:01.821Z,11.8
2022-11-15T11:29:01.151Z,11.8
2022-11-15T11:30:01.110Z,11.8
2022-11-15T11:31:01.106Z,11.8
2022-11-15T11:32:10.637Z,11.9
2022-11-15T11:33:01.507Z,11.9
2022-11-15T11:34:01.176Z,12
2022-11-15T11:35:01.141Z,12
2022-11-15T11:36:01.957Z,11.9
2022-11-15T11:37:13.290Z,12
2022-11-15T11:38:01.251Z,12
2022-11-15T11:39:01.207Z,12
2022-11-15T11:40:02.944Z,12
2022-11-15T11:41:02.681Z,12
2022-11-15T11:42:15.849Z,12
2022-11-15T11:43:02.076Z,12
2022-11-15T11:44:02.598Z,12.1
2022-11-15T11:45:01.094Z,12.1
2022-11-15T11:46:01.113Z,12.1
2022-11-15T11:47:01.158Z,12.1
2022-11-15T11:48:01.208Z,12.2
2022-11-15T11:49:03.964Z,12.2
2022-11-15T11:50:01.859Z,12.3
2022-11-15T11:51:01.206Z,12.3
2022-11-15T11:52:01.191Z,12.4
2022-11-15T11:53:04.174Z,12.4
2022-11-15T11:54:01.849Z,12.4
2022-11-15T11:55:01.173Z,12.4
2022-11-15T11:56:01.208Z,12.3
2022-11-15T11:57:00.763Z,12.4
2022-11-15T11:58:00.332Z,12.4
2022-11-15T11:58:59.923Z,12.5
2022-11-15T11:59:59.659Z,12.5
2022-11-15T12:01:01.823Z,12.5
2022-11-15T12:02:01.282Z,12.5
2022-11-15T12:03:04.625Z,12.6
2022-11-15T12:04:02.328Z,12.6
2022-11-15T12:05:01.790Z,12.6
2022-11-15T12:06:01.133Z,12.6
2022-11-15T12:07:01.249Z,12.6
2022-11-15T12:08:04.159Z,12.6
2022-11-15T12:09:02.044Z,12.6
2022-11-15T12:10:01.185Z,12.6
2022-11-15T12:11:01.189Z,12.7
2022-11-15T12:12:01.164Z,12.7
2022-11-15T12:13:01.089Z,12.7
2022-11-15T12:14:01.389Z,12.7
2022-11-15T12:15:01.225Z,12.7
2022-11-15T12:16:04.925Z,12.7
2022-11-15T12:17:01.843Z,12.7
2022-11-15T12:18:01.182Z,12.7
2022-11-15T12:19:00.767Z,12.7
2022-11-15T12:20:00.480Z,12.7
2022-11-15T12:21:00.274Z,12.7
2022-11-15T12:21:59.997Z,12.6
2022-11-15T12:22:59.677Z,12.6
2022-11-15T12:24:01.600Z,12.6
2022-11-15T12:25:02.198Z,12.6
2022-11-15T12:26:01.461Z,12.6
2022-11-15T12:27:01.166Z,12.6
2022-11-15T12:28:01.142Z,12.7
2022-11-15T12:29:09.176Z,12.7
2022-11-15T12:30:01.079Z,12.8
2022-11-15T12:31:01.091Z,12.8
2022-11-15T12:32:01.153Z,12.8
2022-11-15T12:33:01.457Z,12.8
2022-11-15T12:34:07.045Z,12.8
2022-11-15T12:35:01.084Z,12.8
2022-11-15T12:36:00.806Z,12.8
2022-11-15T12:37:00.386Z,12.8
2022-11-15T12:38:00.108Z,12.8
2022-11-15T12:38:59.810Z,12.8
2022-11-15T12:40:03.966Z,12.9
2022-11-15T12:41:01.442Z,12.9
2022-11-15T12:42:01.288Z,13
2022-11-15T12:43:02.247Z,13
2022-11-15T12:44:02.976Z,13
2022-11-15T12:45:01.963Z,13
2022-11-15T12:46:01.564Z,13
2022-11-15T12:47:01.070Z,13.1
2022-11-15T12:48:01.067Z,13
2022-11-15T12:49:01.179Z,13.1
2022-11-15T12:50:01.493Z,13.1
2022-11-15T12:51:01.488Z,13.1
2022-11-15T12:52:01.230Z,13.1
2022-11-15T12:53:01.916Z,13.1
2022-11-15T12:54:01.877Z,13.1
2022-11-15T12:55:01.117Z,13.1
2022-11-15T12:56:00.821Z,13.1
2022-11-15T12:57:01.312Z,13
2022-11-15T12:58:02.944Z,13
2022-11-15T12:59:01.943Z,13
2022-11-15T13:00:01.155Z,13
2022-11-15T13:01:01.398Z,13
2022-11-15T13:02:01.146Z,13
2022-11-15T13:03:00.967Z,13
2022-11-15T13:04:01.476Z,13
2022-11-15T13:05:01.091Z,13
2022-11-15T13:06:01.093Z,13.1
2022-11-15T13:07:01.277Z,13.1
2022-11-15T13:08:04.179Z,13.1
2022-11-15T13:09:04.072Z,13
2022-11-15T13:10:01.807Z,13
2022-11-15T13:11:01.214Z,13
2022-11-15T13:12:01.603Z,12.9
2022-11-15T13:13:08.133Z,12.9
2022-11-15T13:14:01.148Z,12.8
2022-11-15T13:15:01.057Z,12.8
2022-11-15T13:16:01.070Z,12.8
2022-11-15T13:17:00.607Z,12.8
2022-11-15T13:18:10.608Z,12.8
2022-11-15T13:19:01.480Z,12.8
2022-11-15T13:20:02.208Z,12.7
2022-11-15T13:21:02.939Z,12.7
2022-11-15T13:22:01.128Z,12.6
2022-11-15T13:23:14.248Z,12.7
2022-11-15T13:24:01.098Z,12.7
2022-11-15T13:25:01.316Z,12.8
2022-11-15T13:26:01.324Z,12.8
2022-11-15T13:27:01.519Z,12.8
2022-11-15T13:28:16.801Z,12.8
2022-11-15T13:29:01.151Z,12.8
2022-11-15T13:30:00.828Z,12.9
2022-11-15T13:31:00.741Z,12.9
2022-11-15T13:32:00.427Z,13
2022-11-15T13:33:00.161Z,13
2022-11-15T13:33:59.931Z,13
2022-11-15T13:34:59.657Z,13
2022-11-15T13:36:01.529Z,13
2022-11-15T13:37:01.461Z,13.1
2022-11-15T13:38:02.246Z,13
2022-11-15T13:39:01.101Z,13
2022-11-15T13:40:01.124Z,13
2022-11-15T13:41:01.124Z,13
2022-11-15T13:42:01.159Z,13
2022-11-15T13:43:01.152Z,13
2022-11-15T13:44:01.552Z,13